Pagina principale
METAR-TAF:

METAR-TAF

Aeroporti :

Lakenheath, Inghilterra

latitudine: 52-25N, longitudine: 000-34E, altezza: 10 m

Osservazione

Il bollettino è stato emesso 50 minuti fa, alle 01:56 UTC
Vento calmo
Temperature 5°C
Umidità 70%
Pressione 1021 hPa
Visibilità 10 km o più
Cielo sereno

METAR: EGUL 240156Z AUTO 00000KT 9999 CLR 05/00 A3016 RMK AO2 SLP217 T00451001 $

Ora: 02:46 (02:46 UTC)


TAF: mancante

Osservazioni e previsioni meteorologiche di più di 4000 aeroporti (messaggi METAR e TAF).

Le stazioni disponibili sono rappresentate dai dischi gialli e rossi sulla carta.

Puntare il mouse per vedere il nome della stazione.

Clicca sopra per visualizzare le osservazioni e previsioni meteorologiche.

Per cambiare la mappa : fare clic sui pulsanti verdi con una croce nera per ingrandire, il pulsante verde con un trattino per diminuire, o sulla freccia verde per le mappe adiacenti.


METAR-TAF: